Minerva Atlantica — ZCPR7 — position and weather

sailwx.info

Track history (hours):
 
Tides and Currents Weather Stations Pressure Air Temp Water Temp Dewpoint Dewpoint Depression Visibility Wind Speed Wind Dir Waves Ship Positions

Minerva Atlantica

Last reported at 2017-Jan-20 13:34 UTC. Time now 2017-Jan-20 14:10 UTC.
Position N 53°08' E 003°22'.

Length 250 m; draft 13.9 m.

Type: Ship (hazmat cat B). MMSI: 319161000.

Date/timePositionNaut miles runAvg speedWind from/ knotsBaromVisibWave heightAir tempDewpointWater temp
2017-Jan-20 13:34N 53°08' E 003°22'1312.8
2017-Jan-20 12:33N 53°21' E 003°29'1412.1
2017-Jan-20 11:24N 53°34' E 003°35'1011.7
2017-Jan-20 10:32N 53°44' E 003°41'1711.6
2017-Jan-20 09:05N 53°54' E 004°03'812.0
2017-Jan-20 08:25N 53°59' E 004°14'1012.0
2017-Jan-20 07:34N 54°06' E 004°27'1312.7
2017-Jan-20 06:33N 54°18' E 004°36'28911.5
2017-Jan-19 05:30N 57°49' E 010°29'1010.2
2017-Jan-19 04:33N 57°49' E 010°47'1010.0
2017-Jan-19 03:33N 57°42' E 010°60'1211.7
2017-Jan-19 02:34N 57°33' E 011°15'1211.8
2017-Jan-19 01:34N 57°24' E 011°29'1212.3
2017-Jan-19 00:33N 57°12' E 011°36'1212.4
2017-Jan-18 23:33N 57°01' E 011°43'1212.2
2017-Jan-18 22:33N 56°49' E 011°50'1411.4
2017-Jan-18 21:22N 56°36' E 011°44'1112.4
2017-Jan-18 20:27N 56°26' E 011°34'1212.6
2017-Jan-18 19:32N 56°17' E 011°23'1412.8
2017-Jan-18 18:29N 56°05' E 011°09'1712.4
2017-Jan-18 17:06N 55°53' E 010°49'4211.8
2017-Jan-18 13:33N 55°12' E 011°05'1211.9
2017-Jan-18 12:33N 55°00' E 010°59'1313.1
2017-Jan-18 11:33N 54°48' E 010°50'1010.3
2017-Jan-18 10:33N 54°38' E 010°54'1212.3
2017-Jan-18 09:33N 54°35' E 011°14'1312.8
2017-Jan-18 08:33N 54°29' E 011°34'1212.4
2017-Jan-18 07:33N 54°26' E 011°55'1110.8
2017-Jan-18 06:33N 54°29' E 012°13'10 9.6
2017-Jan-18 05:33N 54°38' E 012°20'8 8.5
2017-Jan-18 04:33N 54°42' E 012°33'1110.3
2017-Jan-18 03:27N 54°48' E 012°50'2411.8
2017-Jan-18 01:24N 54°57' E 013°29'1012.2
2017-Jan-18 00:33N 55°00' E 013°46'1211.8
2017-Jan-17 23:33N 55°05' E 014°05'1211.9
2017-Jan-17 22:33N 55°14' E 014°18'1312.6
2017-Jan-17 21:33N 55°24' E 014°31'1212.2
2017-Jan-17 20:33N 55°31' E 014°50'1212.4
2017-Jan-17 19:32N 55°37' E 015°09'34611.8
2017-Jan-16 14:05N 59°35' E 022°59'612.2
2017-Jan-16 13:33N 59°37' E 023°11'1212.5
2017-Jan-16 12:33N 59°40' E 023°35'1312.5
2017-Jan-16 11:33N 59°43' E 023°59'1312.5
2017-Jan-16 10:31N 59°47' E 024°23'5012.5
2017-Jan-16 06:33N 59°57' E 026°00'1312.7
2017-Jan-16 05:33N 60°00' E 026°25'1212.2
2017-Jan-16 04:33N 60°00' E 026°49'1211.7
2017-Jan-16 03:33N 60°02' E 027°12'1312.6
2017-Jan-16 02:33N 60°09' E 027°34'1211.5
2017-Jan-16 01:33N 60°11' E 027°57'1212.2
2017-Jan-16 00:33N 60°07' E 028°20'1010.5
2017-Jan-15 23:33N 60°10' E 028°40'4 4.2
2017-Jan-15 22:33N 60°13' E 028°46'8 7.2
2017-Jan-15 21:31N 60°20' E 028°42'0 0.0
2017-Jan-14 18:32N 60°20' E 028°42'0 0.2
2017-Jan-14 17:33N 60°20' E 028°41'2 1.5
2017-Jan-14 16:33N 60°19' E 028°43'9 8.6
2017-Jan-14 15:33N 60°10' E 028°42'3 3.4
2017-Jan-14 14:33N 60°09' E 028°36'0 0.0
2017-Jan-14 13:33N 60°09' E 028°36'1 0.9
2017-Jan-14 12:33N 60°09' E 028°34'6 6.3
2017-Jan-14 11:33N 60°07' E 028°21'1212.3
2017-Jan-14 10:33N 60°09' E 027°57'1110.8
2017-Jan-14 09:33N 60°07' E 027°36'1211.7
2017-Jan-14 08:30N 60°01' E 027°14'5 1.6
2017-Jan-14 05:10N 60°02' E 027°04'0 0.0
2017-Jan-14 04:22N 60°02' E 027°04'0 0.0
2017-Jan-13 22:28N 60°02' E 027°04'0 0.0
2017-Jan-13 21:16N 60°02' E 027°04'0 0.0
2017-Jan-13 20:22N 60°02' E 027°04'0 0.0
2017-Jan-13 19:22N 60°02' E 027°04'0 0.1
2017-Jan-13 18:13N 60°02' E 027°04'0 0.0
2017-Jan-13 17:25N 60°02' E 027°04'0 0.0
2017-Jan-13 15:28N 60°02' E 027°04'0 0.0
2017-Jan-13 14:19N 60°02' E 027°04'0 0.1
2017-Jan-13 13:31N 60°02' E 027°04'0 0.1
2017-Jan-13 12:22N 60°02' E 027°04'0 0.1
2017-Jan-13 11:16N 60°02' E 027°04'0 0.1
2017-Jan-13 10:28N 60°02' E 027°04'0 0.0
2017-Jan-13 09:25N 60°02' E 027°04'0 0.0
2017-Jan-13 08:31N 60°02' E 027°04'0 0.1
2017-Jan-13 07:31N 60°02' E 027°04'0 0.1
2017-Jan-13 06:28N 60°02' E 027°04'0 0.1
2017-Jan-13 05:31N 60°02' E 027°04'0 0.1
2017-Jan-13 04:31N 60°02' E 027°04'0 0.1
2017-Jan-13 03:25N 60°02' E 027°04'0 0.0
2017-Jan-13 02:31N 60°02' E 027°04'0 0.0
2017-Jan-13 00:25N 60°02' E 027°04'0 0.0
2017-Jan-12 22:16N 60°02' E 027°04'0 0.0
2017-Jan-12 20:31N 60°02' E 027°04'0 0.0
2017-Jan-12 19:28N 60°02' E 027°04'0 0.0
2017-Jan-12 18:25N 60°02' E 027°04'0 0.0
2017-Jan-12 16:31N 60°02' E 027°04'0 0.1
2017-Jan-12 15:19N 60°02' E 027°04'0 0.0
2017-Jan-12 14:10N 60°02' E 027°04'0 0.0
2017-Jan-12 12:19N 60°02' E 027°04'0 0.1
2017-Jan-12 11:31N 60°02' E 027°04'0 0.1
2017-Jan-12 10:28N 60°02' E 027°04'0 0.1
2017-Jan-12 09:19N 60°02' E 027°04'0 0.1
2017-Jan-12 08:28N 60°02' E 027°04'0 0.0
2017-Jan-12 07:22N 60°02' E 027°04'0 0.0
2017-Jan-12 06:25N 60°02' E 027°04'0 0.0
2017-Jan-12 04:31N 60°02' E 027°04'0 0.0
2017-Jan-12 03:10N 60°02' E 027°04'0 0.0
2017-Jan-12 02:13N 60°02' E 027°04'0 0.1
2017-Jan-12 01:25N 60°02' E 027°04'0 0.1
2017-Jan-12 00:31N 60°02' E 027°04'0 0.1
2017-Jan-11 23:25N 60°02' E 027°04'0 0.1
2017-Jan-11 22:22N 60°02' E 027°04'0 0.1
2017-Jan-11 21:28N 60°02' E 027°04'0 0.1
2017-Jan-11 18:31N 60°02' E 027°04'0 0.1
2017-Jan-11 17:10N 60°02' E 027°04'0 0.1
2017-Jan-11 15:22N 60°02' E 027°04'0 0.1
2017-Jan-11 14:31N 60°02' E 027°04'0 0.0
2017-Jan-11 13:25N 60°02' E 027°04'0 0.0
2017-Jan-11 12:16N 60°02' E 027°04'0 0.0
2017-Jan-11 10:13N 60°02' E 027°04'0 0.1
2017-Jan-11 09:23N 60°02' E 027°04'0 0.4
2017-Jan-11 08:30N 60°02' E 027°04'1 1.4
2017-Jan-11 07:33N 60°01' E 027°05'5 4.9
2017-Jan-11 06:32N 59°58' E 026°56'8 8.2
2017-Jan-11 05:33N 59°59' E 026°40'8 8.5
2017-Jan-11 04:33N 59°57' E 026°24'10 8.5
2017-Jan-11 03:26N 59°55' E 026°05'8 8.5
2017-Jan-11 02:30N 59°53' E 025°50'8 8.4
2017-Jan-11 01:33N 59°50' E 025°35'8 8.4
2017-Jan-11 00:33N 59°49' E 025°18'9 8.4
2017-Jan-10 23:26N 59°47' E 024°60'10 8.6
2017-Jan-10 22:13N 59°45' E 024°40'6 8.6
2017-Jan-10 21:32N 59°44' E 024°28'9 8.7
2017-Jan-10 20:30N 59°41' E 024°11'8 8.6
2017-Jan-10 19:33N 59°39' E 023°56'9 8.6
2017-Jan-10 18:33N 59°36' E 023°40'8 8.5
2017-Jan-10 17:33N 59°33' E 023°24'9 8.6
2017-Jan-10 16:33N 59°31' E 023°08'10 8.5
2017-Jan-10 15:24N 59°28' E 022°49'  
Track history (hours):
 
Tides and Currents Weather Stations Pressure Air Temp Water Temp Dewpoint Dewpoint Depression Visibility Wind Speed Wind Dir Waves Ship Positions

Minerva Atlantica

Last reported at 2017-Jan-20 13:34 UTC. Time now 2017-Jan-20 14:10 UTC.
Position N 53°08' E 003°22'.

Length 250 m; draft 13.9 m.

Type: Ship (hazmat cat B). MMSI: 319161000.

Date/timePositionNaut miles runAvg speedWind from/ knotsBaromVisibWave heightAir tempDewpointWater temp
2017-Jan-20 13:34N 53°08' E 003°22'1312.8
2017-Jan-20 12:33N 53°21' E 003°29'1412.1
2017-Jan-20 11:24N 53°34' E 003°35'1011.7
2017-Jan-20 10:32N 53°44' E 003°41'1711.6
2017-Jan-20 09:05N 53°54' E 004°03'812.0
2017-Jan-20 08:25N 53°59' E 004°14'1012.0
2017-Jan-20 07:34N 54°06' E 004°27'1312.7
2017-Jan-20 06:33N 54°18' E 004°36'28911.5
2017-Jan-19 05:30N 57°49' E 010°29'1010.2
2017-Jan-19 04:33N 57°49' E 010°47'1010.0
2017-Jan-19 03:33N 57°42' E 010°60'1211.7
2017-Jan-19 02:34N 57°33' E 011°15'1211.8
2017-Jan-19 01:34N 57°24' E 011°29'1212.3
2017-Jan-19 00:33N 57°12' E 011°36'1212.4
2017-Jan-18 23:33N 57°01' E 011°43'1212.2
2017-Jan-18 22:33N 56°49' E 011°50'1411.4
2017-Jan-18 21:22N 56°36' E 011°44'1112.4
2017-Jan-18 20:27N 56°26' E 011°34'1212.6
2017-Jan-18 19:32N 56°17' E 011°23'1412.8
2017-Jan-18 18:29N 56°05' E 011°09'1712.4
2017-Jan-18 17:06N 55°53' E 010°49'4211.8
2017-Jan-18 13:33N 55°12' E 011°05'1211.9
2017-Jan-18 12:33N 55°00' E 010°59'1313.1
2017-Jan-18 11:33N 54°48' E 010°50'1010.3
2017-Jan-18 10:33N 54°38' E 010°54'1212.3
2017-Jan-18 09:33N 54°35' E 011°14'1312.8
2017-Jan-18 08:33N 54°29' E 011°34'1212.4
2017-Jan-18 07:33N 54°26' E 011°55'1110.8
2017-Jan-18 06:33N 54°29' E 012°13'10 9.6
2017-Jan-18 05:33N 54°38' E 012°20'8 8.5
2017-Jan-18 04:33N 54°42' E 012°33'1110.3
2017-Jan-18 03:27N 54°48' E 012°50'2411.8
2017-Jan-18 01:24N 54°57' E 013°29'1012.2
2017-Jan-18 00:33N 55°00' E 013°46'1211.8
2017-Jan-17 23:33N 55°05' E 014°05'1211.9
2017-Jan-17 22:33N 55°14' E 014°18'1312.6
2017-Jan-17 21:33N 55°24' E 014°31'1212.2
2017-Jan-17 20:33N 55°31' E 014°50'1212.4
2017-Jan-17 19:32N 55°37' E 015°09'34611.8
2017-Jan-16 14:05N 59°35' E 022°59'612.2
2017-Jan-16 13:33N 59°37' E 023°11'1212.5
2017-Jan-16 12:33N 59°40' E 023°35'1312.5
2017-Jan-16 11:33N 59°43' E 023°59'1312.5
2017-Jan-16 10:31N 59°47' E 024°23'5012.5
2017-Jan-16 06:33N 59°57' E 026°00'1312.7
2017-Jan-16 05:33N 60°00' E 026°25'1212.2
2017-Jan-16 04:33N 60°00' E 026°49'1211.7
2017-Jan-16 03:33N 60°02' E 027°12'1312.6
2017-Jan-16 02:33N 60°09' E 027°34'1211.5
2017-Jan-16 01:33N 60°11' E 027°57'1212.2
2017-Jan-16 00:33N 60°07' E 028°20'1010.5
2017-Jan-15 23:33N 60°10' E 028°40'4 4.2
2017-Jan-15 22:33N 60°13' E 028°46'8 7.2
2017-Jan-15 21:31N 60°20' E 028°42'0 0.0
2017-Jan-14 18:32N 60°20' E 028°42'0 0.2
2017-Jan-14 17:33N 60°20' E 028°41'2 1.5
2017-Jan-14 16:33N 60°19' E 028°43'9 8.6
2017-Jan-14 15:33N 60°10' E 028°42'3 3.4
2017-Jan-14 14:33N 60°09' E 028°36'0 0.0
2017-Jan-14 13:33N 60°09' E 028°36'1 0.9
2017-Jan-14 12:33N 60°09' E 028°34'6 6.3
2017-Jan-14 11:33N 60°07' E 028°21'1212.3
2017-Jan-14 10:33N 60°09' E 027°57'1110.8
2017-Jan-14 09:33N 60°07' E 027°36'1211.7
2017-Jan-14 08:30N 60°01' E 027°14'5 1.6
2017-Jan-14 05:10N 60°02' E 027°04'0 0.0
2017-Jan-14 04:22N 60°02' E 027°04'0 0.0
2017-Jan-13 22:28N 60°02' E 027°04'0 0.0
2017-Jan-13 21:16N 60°02' E 027°04'0 0.0
2017-Jan-13 20:22N 60°02' E 027°04'0 0.0
2017-Jan-13 19:22N 60°02' E 027°04'0 0.1
2017-Jan-13 18:13N 60°02' E 027°04'0 0.0
2017-Jan-13 17:25N 60°02' E 027°04'0 0.0
2017-Jan-13 15:28N 60°02' E 027°04'0 0.0
2017-Jan-13 14:19N 60°02' E 027°04'0 0.1
2017-Jan-13 13:31N 60°02' E 027°04'0 0.1
2017-Jan-13 12:22N 60°02' E 027°04'0 0.1
2017-Jan-13 11:16N 60°02' E 027°04'0 0.1
2017-Jan-13 10:28N 60°02' E 027°04'0 0.0
2017-Jan-13 09:25N 60°02' E 027°04'0 0.0
2017-Jan-13 08:31N 60°02' E 027°04'0 0.1
2017-Jan-13 07:31N 60°02' E 027°04'0 0.1
2017-Jan-13 06:28N 60°02' E 027°04'0 0.1
2017-Jan-13 05:31N 60°02' E 027°04'0 0.1
2017-Jan-13 04:31N 60°02' E 027°04'0 0.1
2017-Jan-13 03:25N 60°02' E 027°04'0 0.0
2017-Jan-13 02:31N 60°02' E 027°04'0 0.0
2017-Jan-13 00:25N 60°02' E 027°04'0 0.0
2017-Jan-12 22:16N 60°02' E 027°04'0 0.0
2017-Jan-12 20:31N 60°02' E 027°04'0 0.0
2017-Jan-12 19:28N 60°02' E 027°04'0 0.0
2017-Jan-12 18:25N 60°02' E 027°04'0 0.0
2017-Jan-12 16:31N 60°02' E 027°04'0 0.1
2017-Jan-12 15:19N 60°02' E 027°04'0 0.0
2017-Jan-12 14:10N 60°02' E 027°04'0 0.0
2017-Jan-12 12:19N 60°02' E 027°04'0 0.1
2017-Jan-12 11:31N 60°02' E 027°04'0 0.1
2017-Jan-12 10:28N 60°02' E 027°04'0 0.1
2017-Jan-12 09:19N 60°02' E 027°04'0 0.1
2017-Jan-12 08:28N 60°02' E 027°04'0 0.0
2017-Jan-12 07:22N 60°02' E 027°04'0 0.0
2017-Jan-12 06:25N 60°02' E 027°04'0 0.0
2017-Jan-12 04:31N 60°02' E 027°04'0 0.0
2017-Jan-12 03:10N 60°02' E 027°04'0 0.0
2017-Jan-12 02:13N 60°02' E 027°04'0 0.1
2017-Jan-12 01:25N 60°02' E 027°04'0 0.1
2017-Jan-12 00:31N 60°02' E 027°04'0 0.1
2017-Jan-11 23:25N 60°02' E 027°04'0 0.1
2017-Jan-11 22:22N 60°02' E 027°04'0 0.1
2017-Jan-11 21:28N 60°02' E 027°04'0 0.1
2017-Jan-11 18:31N 60°02' E 027°04'0 0.1
2017-Jan-11 17:10N 60°02' E 027°04'0 0.1
2017-Jan-11 15:22N 60°02' E 027°04'0 0.1
2017-Jan-11 14:31N 60°02' E 027°04'0 0.0
2017-Jan-11 13:25N 60°02' E 027°04'0 0.0
2017-Jan-11 12:16N 60°02' E 027°04'0 0.0
2017-Jan-11 10:13N 60°02' E 027°04'0 0.1
2017-Jan-11 09:23N 60°02' E 027°04'0 0.4
2017-Jan-11 08:30N 60°02' E 027°04'1 1.4
2017-Jan-11 07:33N 60°01' E 027°05'5 4.9
2017-Jan-11 06:32N 59°58' E 026°56'8 8.2
2017-Jan-11 05:33N 59°59' E 026°40'8 8.5
2017-Jan-11 04:33N 59°57' E 026°24'10 8.5
2017-Jan-11 03:26N 59°55' E 026°05'8 8.5
2017-Jan-11 02:30N 59°53' E 025°50'8 8.4
2017-Jan-11 01:33N 59°50' E 025°35'8 8.4
2017-Jan-11 00:33N 59°49' E 025°18'9 8.4
2017-Jan-10 23:26N 59°47' E 024°60'10 8.6
2017-Jan-10 22:13N 59°45' E 024°40'6 8.6
2017-Jan-10 21:32N 59°44' E 024°28'9 8.7
2017-Jan-10 20:30N 59°41' E 024°11'8 8.6
2017-Jan-10 19:33N 59°39' E 023°56'9 8.6
2017-Jan-10 18:33N 59°36' E 023°40'8 8.5
2017-Jan-10 17:33N 59°33' E 023°24'9 8.6
2017-Jan-10 16:33N 59°31' E 023°08'10 8.5
2017-Jan-10 15:24N 59°28' E 022°49'  

Dump ship's entire track history